createdAt,value
2023-02-27T00:00:36.530Z,100365.30
2023-02-27T00:03:05.123Z,100365.48
2023-02-27T00:05:33.509Z,100362.77
2023-02-27T00:08:02.384Z,100366.28
2023-02-27T00:10:35.227Z,100371.48
2023-02-27T00:13:04.519Z,100373.80
2023-02-27T00:15:33.102Z,100371.95
2023-02-27T00:18:04.514Z,100366.27
2023-02-27T00:20:38.357Z,100366.90
2023-02-27T00:23:07.114Z,100356.85
2023-02-27T00:25:36.819Z,100352.03
2023-02-27T00:28:06.140Z,100354.45
2023-02-27T00:30:34.617Z,100370.08
2023-02-27T00:33:04.468Z,100377.27
2023-02-27T00:35:35.855Z,100371.69
2023-02-27T00:38:08.694Z,100381.48
2023-02-27T00:40:37.163Z,100395.33
2023-02-27T00:43:05.693Z,100409.55
2023-02-27T00:45:34.197Z,100411.08
2023-02-27T00:48:02.690Z,100411.70
2023-02-27T00:50:31.542Z,100409.40
2023-02-27T00:53:00.034Z,100401.31
2023-02-27T00:55:28.811Z,100401.58
2023-02-27T00:57:57.397Z,100400.75
2023-02-27T01:00:25.926Z,100402.25
2023-02-27T01:02:57.023Z,100403.70
2023-02-27T01:05:25.842Z,100402.02
2023-02-27T01:07:55.450Z,100409.69
2023-02-27T01:10:30.095Z,100423.79
2023-02-27T01:12:59.370Z,100431.91
2023-02-27T01:15:28.237Z,100428.64
2023-02-27T01:17:57.444Z,100428.88
2023-02-27T01:20:25.924Z,100433.86
2023-02-27T01:22:54.402Z,100435.58
2023-02-27T01:25:22.986Z,100438.79
2023-02-27T01:27:51.818Z,100433.52
2023-02-27T01:30:20.387Z,100428.15
2023-02-27T01:32:49.067Z,100428.67
2023-02-27T01:35:18.146Z,100426.30
2023-02-27T01:37:46.939Z,100428.26
2023-02-27T01:40:15.511Z,100433.89
2023-02-27T01:42:46.693Z,100438.23
2023-02-27T01:45:28.095Z,100443.61
2023-02-27T01:48:27.432Z,100443.67
2023-02-27T01:51:03.800Z,100443.54
2023-02-27T01:53:34.765Z,100446.89
2023-02-27T01:56:12.628Z,100460.48
2023-02-27T01:58:42.080Z,100464.01
2023-02-27T02:01:10.511Z,100466.39
2023-02-27T02:03:44.144Z,100467.50
2023-02-27T02:06:12.921Z,100472.63
2023-02-27T02:08:46.114Z,100471.20
2023-02-27T02:11:16.241Z,100478.03
2023-02-27T02:13:47.109Z,100472.09
2023-02-27T02:16:35.940Z,100462.63
2023-02-27T02:19:16.555Z,100468.86
2023-02-27T02:21:52.661Z,100475.41
2023-02-27T02:24:43.902Z,100480.66
2023-02-27T02:27:30.619Z,100484.75
2023-02-27T02:30:17.716Z,100490.45
2023-02-27T02:33:24.816Z,100491.92
2023-02-27T02:36:18.720Z,100502.41
2023-02-27T02:38:56.355Z,100497.38
2023-02-27T02:41:40.411Z,100498.36
2023-02-27T02:44:31.024Z,100502.52
2023-02-27T02:47:20.753Z,100497.39
2023-02-27T02:50:00.851Z,100501.83
2023-02-27T02:52:36.290Z,100502.86
2023-02-27T02:55:29.745Z,100506.98
2023-02-27T02:58:30.055Z,100510.26
2023-02-27T03:01:38.765Z,100509.39
2023-02-27T03:04:10.780Z,100503.00
2023-02-27T03:06:49.084Z,100509.98
2023-02-27T03:09:38.856Z,100515.00
2023-02-27T03:12:10.611Z,100513.89
2023-02-27T03:14:58.997Z,100520.96
2023-02-27T03:17:42.206Z,100524.23
2023-02-27T03:20:18.233Z,100531.46
2023-02-27T03:22:48.111Z,100534.66
2023-02-27T03:25:20.631Z,100530.71
2023-02-27T03:27:57.885Z,100524.52
2023-02-27T03:30:28.734Z,100521.77
2023-02-27T03:33:00.200Z,100516.99
2023-02-27T03:35:58.086Z,100526.08
2023-02-27T03:38:32.347Z,100520.41
2023-02-27T03:41:11.415Z,100519.73
2023-02-27T03:43:50.555Z,100527.52
2023-02-27T03:46:24.100Z,100535.66
2023-02-27T03:48:54.074Z,100535.80
2023-02-27T03:51:24.531Z,100540.98
2023-02-27T03:54:14.164Z,100549.31
2023-02-27T03:57:03.666Z,100556.25
2023-02-27T03:59:33.049Z,100552.31
2023-02-27T04:02:03.720Z,100556.23
2023-02-27T04:04:32.980Z,100563.88
2023-02-27T04:07:38.625Z,100567.11
2023-02-27T04:10:18.393Z,100570.33
2023-02-27T04:13:11.393Z,100573.31
2023-02-27T04:16:00.893Z,100570.15
2023-02-27T04:18:51.098Z,100563.10
2023-02-27T04:21:31.986Z,100564.33
2023-02-27T04:24:22.462Z,100569.52
2023-02-27T04:26:57.379Z,100572.11
2023-02-27T04:29:38.478Z,100567.89
2023-02-27T04:32:21.860Z,100572.01
2023-02-27T04:34:58.562Z,100573.84
2023-02-27T04:37:33.761Z,100576.33
2023-02-27T04:40:07.967Z,100580.83
2023-02-27T04:42:39.324Z,100581.17
2023-02-27T04:45:17.056Z,100577.10
2023-02-27T04:47:56.592Z,100576.63
2023-02-27T04:50:36.109Z,100576.21
2023-02-27T04:53:08.796Z,100580.30
2023-02-27T04:55:45.722Z,100586.70
2023-02-27T04:58:18.584Z,100584.55
2023-02-27T05:00:50.003Z,100593.45
2023-02-27T05:03:25.297Z,100601.22
2023-02-27T05:05:55.727Z,100586.02
2023-02-27T05:08:36.125Z,100554.20
2023-02-27T05:11:29.667Z,100489.59
2023-02-27T05:14:04.444Z,100473.05
2023-02-27T05:16:45.664Z,100508.77
2023-02-27T05:19:18.483Z,100514.27
2023-02-27T05:22:11.328Z,100509.08
2023-02-27T05:24:55.750Z,100527.69
2023-02-27T05:27:26.191Z,100536.44
2023-02-27T05:29:59.491Z,100534.44
2023-02-27T05:32:30.261Z,100526.97
2023-02-27T05:35:05.231Z,100522.38
2023-02-27T05:37:37.719Z,100517.27
2023-02-27T05:40:08.604Z,100519.66
2023-02-27T05:42:50.607Z,100527.44
2023-02-27T05:45:23.645Z,100536.54
2023-02-27T05:47:57.952Z,100566.80
2023-02-27T05:50:28.606Z,100594.13
2023-02-27T05:52:59.260Z,100606.10
2023-02-27T05:55:33.235Z,100622.23
2023-02-27T05:58:19.534Z,100623.69
2023-02-27T06:00:52.467Z,100617.20
2023-02-27T06:03:21.121Z,100615.48
2023-02-27T06:05:50.197Z,100618.05
2023-02-27T06:08:19.113Z,100617.27
2023-02-27T06:10:53.234Z,100607.92
2023-02-27T06:13:23.323Z,100604.85
2023-02-27T06:15:51.712Z,100607.89
2023-02-27T06:18:20.697Z,100610.05
2023-02-27T06:20:50.295Z,100613.06
2023-02-27T06:23:18.882Z,100613.73
2023-02-27T06:25:48.794Z,100617.00
2023-02-27T06:28:17.279Z,100622.39
2023-02-27T06:30:46.504Z,100619.48
2023-02-27T06:33:15.501Z,100621.41
2023-02-27T06:35:47.516Z,100622.92
2023-02-27T06:38:17.266Z,100625.63
2023-02-27T06:40:45.630Z,100620.08
2023-02-27T06:43:15.125Z,100624.58
2023-02-27T06:45:50.016Z,100622.92
2023-02-27T06:48:19.113Z,100619.99
2023-02-27T06:50:54.704Z,100617.37
2023-02-27T06:53:23.996Z,100615.74
2023-02-27T06:55:52.481Z,100608.31
2023-02-27T06:58:21.748Z,100609.48
2023-02-27T07:00:50.084Z,100616.58
2023-02-27T07:03:18.531Z,100612.73
2023-02-27T07:05:50.725Z,100611.80
2023-02-27T07:08:19.904Z,100609.02
2023-02-27T07:10:49.405Z,100609.46
2023-02-27T07:13:19.636Z,100608.30
2023-02-27T07:15:49.221Z,100611.55
2023-02-27T07:18:17.522Z,100609.61
2023-02-27T07:20:45.989Z,100604.21
2023-02-27T07:23:14.883Z,100601.40
2023-02-27T07:25:43.472Z,100598.02
2023-02-27T07:28:13.124Z,100592.92
2023-02-27T07:30:41.768Z,100583.03
2023-02-27T07:33:10.648Z,100583.15
2023-02-27T07:35:39.533Z,100573.96
2023-02-27T07:38:08.384Z,100573.86
2023-02-27T07:40:37.323Z,100570.97
2023-02-27T07:43:06.237Z,100577.06
2023-02-27T07:45:35.563Z,100572.64
2023-02-27T07:48:04.645Z,100574.44
2023-02-27T07:50:34.043Z,100565.73
2023-02-27T07:53:02.706Z,100553.20
2023-02-27T07:55:31.492Z,100554.88
2023-02-27T07:58:03.664Z,100558.38
2023-02-27T08:00:32.954Z,100565.84
2023-02-27T08:03:01.491Z,100569.21
2023-02-27T08:05:30.338Z,100564.89
2023-02-27T08:07:58.823Z,100567.58
2023-02-27T08:10:27.905Z,100562.68
2023-02-27T08:12:56.503Z,100560.61
2023-02-27T08:15:25.076Z,100556.09
2023-02-27T08:17:53.586Z,100561.10
2023-02-27T08:20:23.074Z,100561.38
2023-02-27T08:22:51.746Z,100562.89
2023-02-27T08:25:21.677Z,100564.27
2023-02-27T08:27:50.383Z,100565.40
2023-02-27T08:30:19.289Z,100569.02
2023-02-27T08:32:47.963Z,100571.65
2023-02-27T08:35:16.863Z,100568.11
2023-02-27T08:37:45.717Z,100560.85
2023-02-27T08:40:14.317Z,100554.70
2023-02-27T08:42:43.278Z,100555.16
2023-02-27T08:45:12.070Z,100556.92
2023-02-27T08:47:43.006Z,100561.27
2023-02-27T08:50:15.075Z,100570.46
2023-02-27T08:52:44.061Z,100574.37
2023-02-27T08:55:12.680Z,100569.38
2023-02-27T08:57:41.659Z,100566.34
2023-02-27T09:00:11.098Z,100560.61
2023-02-27T09:02:42.214Z,100564.73
2023-02-27T09:05:11.606Z,100563.45
2023-02-27T09:07:42.330Z,100563.73
2023-02-27T09:10:13.530Z,100562.70
2023-02-27T09:12:44.891Z,100562.21
2023-02-27T09:15:13.613Z,100556.49
2023-02-27T09:17:42.112Z,100554.17
2023-02-27T09:20:12.420Z,100555.09
2023-02-27T09:22:41.952Z,100553.42
2023-02-27T09:25:12.368Z,100551.27
2023-02-27T09:27:41.353Z,100554.23
2023-02-27T09:30:11.357Z,100559.54
2023-02-27T09:32:39.798Z,100557.84
2023-02-27T09:35:09.604Z,100557.02
2023-02-27T09:37:38.459Z,100566.49
2023-02-27T09:40:08.144Z,100569.20
2023-02-27T09:42:42.371Z,100572.10
2023-02-27T09:45:23.662Z,100573.25
2023-02-27T09:47:56.994Z,100570.43
2023-02-27T09:50:38.582Z,100571.29
2023-02-27T09:53:27.274Z,100572.95
2023-02-27T09:55:58.013Z,100573.65
2023-02-27T09:58:30.283Z,100570.70
2023-02-27T10:01:33.272Z,100568.41
2023-02-27T10:04:14.073Z,100567.06
2023-02-27T10:06:53.724Z,100568.86
2023-02-27T10:09:47.366Z,100563.73
2023-02-27T10:12:19.126Z,100566.21
2023-02-27T10:14:57.755Z,100561.55
2023-02-27T10:22:19.303Z,100549.74
2023-02-27T10:24:51.268Z,100548.86
2023-02-27T10:27:21.006Z,100548.05
2023-02-27T10:29:50.394Z,100545.86
2023-02-27T10:32:22.901Z,100547.48
2023-02-27T10:35:08.120Z,100543.52
2023-02-27T10:37:37.621Z,100552.46
2023-02-27T10:40:06.923Z,100556.77
2023-02-27T10:42:39.146Z,100555.55
2023-02-27T10:45:15.052Z,100549.13
2023-02-27T10:47:46.009Z,100542.24
2023-02-27T10:50:20.697Z,100537.54
2023-02-27T10:52:54.355Z,100530.34
2023-02-27T10:55:26.149Z,100526.68
2023-02-27T10:57:56.080Z,100532.81
2023-02-27T11:00:29.224Z,100529.86
2023-02-27T11:02:57.821Z,100532.61
2023-02-27T11:05:31.510Z,100526.80
2023-02-27T11:08:20.886Z,100524.96
2023-02-27T11:11:00.332Z,100530.05
2023-02-27T11:13:36.493Z,100531.08
2023-02-27T11:16:07.287Z,100528.29
2023-02-27T11:18:43.554Z,100523.23
2023-02-27T11:21:25.276Z,100530.65
2023-02-27T11:24:01.906Z,100532.42
2023-02-27T11:26:36.388Z,100538.67
2023-02-27T11:29:15.110Z,100535.79
2023-02-27T11:32:06.070Z,100531.70
2023-02-27T11:34:36.959Z,100535.47
2023-02-27T11:37:19.188Z,100536.80
2023-02-27T11:39:51.579Z,100537.05
2023-02-27T11:42:31.408Z,100532.98
2023-02-27T11:46:19.033Z,100532.38
2023-02-27T11:48:21.482Z,100530.33
2023-02-27T11:51:11.811Z,100528.62
2023-02-27T11:54:05.325Z,100530.15
2023-02-27T11:56:44.578Z,100532.64
2023-02-27T11:59:40.642Z,100531.14
2023-02-27T12:02:18.189Z,100535.16
2023-02-27T12:04:54.482Z,100535.40
2023-02-27T12:07:35.169Z,100533.25
2023-02-27T12:10:22.964Z,100539.34
2023-02-27T12:13:12.982Z,100545.33
2023-02-27T12:15:49.555Z,100548.41
2023-02-27T12:18:31.876Z,100551.38
2023-02-27T12:21:04.293Z,100553.88
2023-02-27T12:23:41.204Z,100559.38
2023-02-27T12:26:22.884Z,100554.95
2023-02-27T12:28:55.080Z,100557.64
2023-02-27T12:31:35.941Z,100550.56
2023-02-27T12:34:29.597Z,100553.71
2023-02-27T12:37:06.272Z,100555.16
2023-02-27T12:39:35.378Z,100554.63
2023-02-27T12:42:13.127Z,100552.89
2023-02-27T12:44:44.424Z,100550.38
2023-02-27T12:47:37.483Z,100548.19
2023-02-27T12:50:11.078Z,100553.96
2023-02-27T12:52:43.660Z,100550.38
2023-02-27T12:55:19.305Z,100543.89
2023-02-27T12:58:06.433Z,100554.40
2023-02-27T13:00:47.955Z,100552.95
2023-02-27T13:03:26.478Z,100561.13
2023-02-27T13:06:12.943Z,100576.83
2023-02-27T13:09:09.165Z,100579.20
2023-02-27T13:11:53.628Z,100575.92
2023-02-27T13:14:28.664Z,100581.66
2023-02-27T13:17:17.263Z,100590.41
2023-02-27T13:19:45.823Z,100586.73
2023-02-27T13:22:19.755Z,100585.44
2023-02-27T13:24:51.017Z,100584.37
2023-02-27T13:27:39.371Z,100579.16
2023-02-27T13:30:24.040Z,100586.96
2023-02-27T13:33:17.374Z,100589.94
2023-02-27T13:36:04.784Z,100606.35
2023-02-27T13:38:44.240Z,100592.00
2023-02-27T13:41:25.082Z,100608.76
2023-02-27T13:44:01.505Z,100581.95
2023-02-27T13:46:32.024Z,100583.36
2023-02-27T13:49:04.810Z,100581.73
2023-02-27T13:51:40.044Z,100571.86
2023-02-27T13:54:14.371Z,100574.56
2023-02-27T13:56:57.680Z,100571.95
2023-02-27T13:59:29.111Z,100566.95
2023-02-27T14:02:10.783Z,100562.81
2023-02-27T14:04:46.120Z,100555.75
2023-02-27T14:07:21.970Z,100551.19
2023-02-27T14:09:52.384Z,100555.49
2023-02-27T14:12:44.011Z,100549.02
2023-02-27T14:15:25.609Z,100561.22
2023-02-27T14:18:12.339Z,100564.39
2023-02-27T14:20:43.040Z,100558.83
2023-02-27T14:23:17.578Z,100565.52
2023-02-27T14:25:48.396Z,100577.86
2023-02-27T14:28:30.500Z,100588.30
2023-02-27T14:31:06.310Z,100585.09
2023-02-27T14:33:41.532Z,100585.46
2023-02-27T14:36:19.750Z,100585.03
2023-02-27T14:38:49.227Z,100586.16
2023-02-27T14:41:38.694Z,100588.77
2023-02-27T14:44:20.172Z,100585.27
2023-02-27T14:46:51.191Z,100582.84
2023-02-27T14:49:25.353Z,100576.71
2023-02-27T14:51:54.311Z,100573.61
2023-02-27T14:54:24.364Z,100564.67
2023-02-27T14:57:26.999Z,100559.16
2023-02-27T14:59:55.878Z,100560.33
2023-02-27T15:02:30.637Z,100566.59
2023-02-27T15:05:02.321Z,100576.66
2023-02-27T15:07:33.249Z,100574.82
2023-02-27T15:10:05.645Z,100581.44
2023-02-27T15:12:37.781Z,100582.23
2023-02-27T15:15:10.263Z,100582.06
2023-02-27T15:17:41.207Z,100579.50
2023-02-27T15:20:30.090Z,100582.74
2023-02-27T15:23:22.794Z,100576.45
2023-02-27T15:25:59.434Z,100583.88
2023-02-27T15:28:32.519Z,100584.98
2023-02-27T15:31:01.270Z,100588.14
2023-02-27T15:33:31.356Z,100606.83
2023-02-27T15:36:00.267Z,100612.88
2023-02-27T15:38:33.953Z,100620.14
2023-02-27T15:41:04.175Z,100625.27
2023-02-27T15:43:32.650Z,100619.49
2023-02-27T15:46:01.156Z,100618.10
2023-02-27T15:48:30.133Z,100620.92
2023-02-27T15:50:59.377Z,100621.35
2023-02-27T15:53:29.148Z,100615.30
2023-02-27T15:55:59.170Z,100612.06
2023-02-27T15:58:37.920Z,100619.39
2023-02-27T16:01:13.808Z,100623.48
2023-02-27T16:03:49.638Z,100627.83
2023-02-27T16:06:39.453Z,100631.86
2023-02-27T16:09:19.954Z,100642.69
2023-02-27T16:11:49.702Z,100645.47
2023-02-27T16:14:42.254Z,100647.55
2023-02-27T16:17:23.272Z,100649.84
2023-02-27T16:19:52.163Z,100650.14
2023-02-27T16:22:21.258Z,100655.67
2023-02-27T16:24:50.133Z,100656.70
2023-02-27T16:27:26.416Z,100661.64
2023-02-27T16:29:56.419Z,100663.30
2023-02-27T16:32:29.572Z,100668.27
2023-02-27T16:35:08.920Z,100660.21
2023-02-27T16:37:41.022Z,100666.19
2023-02-27T16:40:14.452Z,100672.37
2023-02-27T16:42:44.158Z,100661.47
2023-02-27T16:45:18.503Z,100661.45
2023-02-27T16:47:51.243Z,100660.09
2023-02-27T16:50:24.955Z,100654.73
2023-02-27T16:52:54.239Z,100652.90
2023-02-27T16:55:22.603Z,100648.02
2023-02-27T16:57:51.219Z,100648.96
2023-02-27T17:00:20.307Z,100645.80
2023-02-27T17:02:48.835Z,100649.64
2023-02-27T17:05:18.375Z,100637.36
2023-02-27T17:07:49.051Z,100620.89
2023-02-27T17:10:19.321Z,100614.65
2023-02-27T17:12:48.762Z,100611.45
2023-02-27T17:15:18.159Z,100615.69
2023-02-27T17:17:46.725Z,100618.59
2023-02-27T17:20:15.194Z,100620.98
2023-02-27T17:22:46.438Z,100618.91
2023-02-27T17:25:15.127Z,100611.89
2023-02-27T17:27:43.865Z,100604.55
2023-02-27T17:30:13.744Z,100617.09
2023-02-27T17:32:42.717Z,100622.38
2023-02-27T17:35:13.897Z,100627.61
2023-02-27T17:37:42.361Z,100624.09
2023-02-27T17:40:12.893Z,100626.31
2023-02-27T17:42:41.454Z,100622.02
2023-02-27T17:45:10.649Z,100623.27
2023-02-27T17:47:39.554Z,100623.02
2023-02-27T17:50:08.574Z,100634.50
2023-02-27T17:52:38.451Z,100640.99
2023-02-27T17:55:08.822Z,100645.11
2023-02-27T17:57:37.968Z,100647.79
2023-02-27T18:00:07.333Z,100652.97
2023-02-27T18:02:37.399Z,100655.94
2023-02-27T18:05:06.720Z,100660.76
2023-02-27T18:07:35.188Z,100661.11
2023-02-27T18:10:05.735Z,100661.95
2023-02-27T18:12:34.541Z,100663.86
2023-02-27T18:15:07.377Z,100661.55
2023-02-27T18:17:38.029Z,100658.94
2023-02-27T18:20:07.181Z,100660.79
2023-02-27T18:22:36.706Z,100661.45
2023-02-27T18:25:05.714Z,100658.52
2023-02-27T18:27:35.511Z,100654.14
2023-02-27T18:30:04.758Z,100657.00
2023-02-27T18:32:34.276Z,100655.13
2023-02-27T18:35:03.242Z,100665.99
2023-02-27T18:37:32.431Z,100673.69
2023-02-27T18:40:05.501Z,100684.23
2023-02-27T18:42:36.739Z,100692.39
2023-02-27T18:45:06.673Z,100691.52
2023-02-27T18:47:35.010Z,100695.03
2023-02-27T18:50:04.379Z,100682.98
2023-02-27T18:52:34.522Z,100676.17
2023-02-27T18:55:05.002Z,100686.89
2023-02-27T18:57:35.208Z,100701.83
2023-02-27T19:00:05.471Z,100708.67
2023-02-27T19:02:34.261Z,100706.29
2023-02-27T19:05:04.129Z,100698.35
2023-02-27T19:07:32.954Z,100704.45
2023-02-27T19:10:04.259Z,100705.02
2023-02-27T19:12:32.874Z,100702.13
2023-02-27T19:15:05.451Z,100703.96
2023-02-27T19:17:33.896Z,100703.84
2023-02-27T19:20:03.104Z,100714.13
2023-02-27T19:22:32.210Z,100713.39
2023-02-27T19:25:00.675Z,100709.14
2023-02-27T19:27:29.482Z,100701.64
2023-02-27T19:30:01.646Z,100703.33
2023-02-27T19:32:31.453Z,100697.31
2023-02-27T19:34:59.849Z,100696.97
2023-02-27T19:37:28.858Z,100692.11
2023-02-27T19:40:00.192Z,100695.29
2023-02-27T19:42:29.182Z,100701.23
2023-02-27T19:44:58.365Z,100698.65
2023-02-27T19:47:26.949Z,100699.89
2023-02-27T19:49:55.632Z,100707.92
2023-02-27T19:52:24.124Z,100707.91
2023-02-27T19:54:52.905Z,100715.14
2023-02-27T19:57:22.220Z,100719.81
2023-02-27T19:59:50.904Z,100728.57
2023-02-27T20:02:19.267Z,100736.92
2023-02-27T20:04:48.364Z,100751.30
2023-02-27T20:07:19.035Z,100761.80
2023-02-27T20:09:48.329Z,100760.07
2023-02-27T20:12:17.204Z,100749.52
2023-02-27T20:22:28.897Z,100740.81
2023-02-27T20:24:57.408Z,100753.73
2023-02-27T20:27:26.661Z,100766.74
2023-02-27T20:29:56.117Z,100763.62
2023-02-27T20:32:25.246Z,100748.05
2023-02-27T20:34:55.831Z,100754.54
2023-02-27T20:37:24.430Z,100773.56
2023-02-27T20:39:53.110Z,100787.45
2023-02-27T20:42:21.565Z,100773.25
2023-02-27T20:44:50.342Z,100768.14
2023-02-27T20:47:19.481Z,100766.99
2023-02-27T20:49:48.003Z,100758.73
2023-02-27T20:52:16.743Z,100762.16
2023-02-27T20:54:45.363Z,100767.83
2023-02-27T20:57:13.914Z,100779.38
2023-02-27T20:59:43.118Z,100787.35
2023-02-27T21:02:12.208Z,100789.48
2023-02-27T21:04:44.381Z,100793.82
2023-02-27T21:07:14.802Z,100787.20
2023-02-27T21:09:43.803Z,100788.45
2023-02-27T21:12:12.688Z,100784.92
2023-02-27T21:14:44.528Z,100794.13
2023-02-27T21:17:14.061Z,100795.28
2023-02-27T21:19:46.564Z,100792.89
2023-02-27T21:22:17.171Z,100798.89
2023-02-27T21:24:46.879Z,100793.66
2023-02-27T21:27:16.676Z,100789.52
2023-02-27T21:29:45.260Z,100795.17
2023-02-27T21:32:13.862Z,100800.79
2023-02-27T21:34:42.594Z,100801.40
2023-02-27T21:37:12.710Z,100803.77
2023-02-27T21:39:50.816Z,100804.15
2023-02-27T21:42:19.438Z,100808.31
2023-02-27T21:44:48.048Z,100807.42
2023-02-27T21:47:17.169Z,100811.94
2023-02-27T21:49:48.059Z,100807.11
2023-02-27T21:52:16.440Z,100798.61
2023-02-27T21:54:45.074Z,100793.55
2023-02-27T21:57:13.500Z,100794.47
2023-02-27T21:59:45.719Z,100792.25
2023-02-27T22:02:14.816Z,100793.42
2023-02-27T22:04:43.855Z,100792.27
2023-02-27T22:07:12.336Z,100794.48
2023-02-27T22:09:44.298Z,100798.91
2023-02-27T22:12:15.184Z,100804.49
2023-02-27T22:14:44.406Z,100809.48
2023-02-27T22:17:12.919Z,100813.77
2023-02-27T22:19:41.411Z,100810.38
2023-02-27T22:22:10.085Z,100807.43
2023-02-27T22:24:38.799Z,100805.26
2023-02-27T22:27:07.271Z,100805.91
2023-02-27T22:29:38.309Z,100807.69
2023-02-27T22:32:06.887Z,100815.53
2023-02-27T22:34:35.979Z,100821.90
2023-02-27T22:37:04.760Z,100826.38
2023-02-27T22:39:36.210Z,100821.94
2023-02-27T22:42:04.663Z,100828.92
2023-02-27T22:44:33.648Z,100824.09
2023-02-27T22:47:04.933Z,100821.49
2023-02-27T22:49:39.352Z,100822.31
2023-02-27T22:52:08.090Z,100822.61
2023-02-27T22:54:36.824Z,100818.52
2023-02-27T22:57:06.179Z,100812.48
2023-02-27T22:59:36.904Z,100816.54
2023-02-27T23:02:06.532Z,100813.71
2023-02-27T23:04:35.283Z,100820.53
2023-02-27T23:07:04.045Z,100824.20
2023-02-27T23:09:32.460Z,100827.35
2023-02-27T23:12:03.826Z,100833.39
2023-02-27T23:14:34.003Z,100834.92
2023-02-27T23:17:02.369Z,100847.83
2023-02-27T23:19:32.421Z,100851.41
2023-02-27T23:22:06.817Z,100844.95
2023-02-27T23:24:38.367Z,100835.60
2023-02-27T23:27:25.490Z,100828.19
2023-02-27T23:29:55.533Z,100826.83
2023-02-27T23:32:24.284Z,100828.45
2023-02-27T23:34:52.972Z,100823.20
2023-02-27T23:37:21.872Z,100817.80
2023-02-27T23:39:54.250Z,100820.29
2023-02-27T23:42:41.723Z,100826.90
2023-02-27T23:45:26.060Z,100828.39
2023-02-27T23:47:56.547Z,100833.21
2023-02-27T23:50:26.873Z,100835.55
2023-02-27T23:52:56.485Z,100837.45
2023-02-27T23:55:25.160Z,100836.05
2023-02-27T23:57:54.130Z,100833.95
